Time;durP1;ratioP1;P1;durP2;ratioP2;P2;SDS_P1;SDS_P2;PMS_P1;PMS_P2;Temp;Humidity;BMP_temperature;BMP_pressure;BME280_temperature;BME280_humidity;BME280_pressure;Samples;Min_cycle;Max_cycle;Signal;HPM_P1;HPM_P2
2022/03/10 00:01:43;;;;;;;26.42;16.02;;;7.40;68.90;;;;;;6109647;23;20010;-90
2022/03/10 00:04:09;;;;;;;25.45;16.08;;;7.40;68.60;;;;;;6108303;23;20065;-90
2022/03/10 00:06:35;;;;;;;32.78;16.98;;;7.30;69.70;;;;;;6159484;23;20010;-91
2022/03/10 00:09:02;;;;;;;26.40;15.88;;;7.30;70.00;;;;;;6133306;23;20009;-91
2022/03/10 00:11:28;;;;;;;28.15;16.15;;;7.30;69.40;;;;;;6109958;23;20063;-91
2022/03/10 00:13:54;;;;;;;30.02;16.60;;;7.20;69.60;;;;;;6159023;23;20100;-86
2022/03/10 00:16:20;;;;;;;26.23;16.55;;;7.20;70.00;;;;;;6106192;23;20056;-86
2022/03/10 00:18:46;;;;;;;27.15;16.73;;;7.20;69.90;;;;;;6105910;23;20138;-86
2022/03/10 00:21:12;;;;;;;28.50;17.25;;;7.20;70.20;;;;;;6105854;23;20033;-87
2022/03/10 00:23:37;;;;;;;25.17;15.02;;;7.10;70.00;;;;;;6130453;23;20064;-86
2022/03/10 00:26:03;;;;;;;24.30;15.30;;;7.10;70.50;;;;;;6105902;23;20044;-86
2022/03/10 00:28:29;;;;;;;29.83;16.45;;;7.00;70.70;;;;;;6105776;23;20036;-86
2022/03/10 00:30:54;;;;;;;25.80;15.18;;;7.00;70.60;;;;;;6078098;23;20429;-86
2022/03/10 00:33:20;;;;;;;24.42;15.23;;;7.00;70.70;;;;;;6049461;23;20010;-90
2022/03/10 00:35:46;;;;;;;24.30;14.73;;;7.00;71.20;;;;;;6077900;23;20006;-90
2022/03/10 00:38:11;;;;;;;24.35;15.57;;;6.90;71.20;;;;;;6101657;23;20002;-90
2022/03/10 00:40:37;;;;;;;27.08;15.02;;;6.90;71.10;;;;;;6079837;23;20021;-89
2022/03/10 00:43:03;;;;;;;26.88;15.63;;;6.90;71.70;;;;;;6079580;23;20014;-90
2022/03/10 00:45:28;;;;;;;26.38;15.48;;;6.80;71.70;;;;;;6055704;23;20336;-90
2022/03/10 00:47:54;;;;;;;26.45;15.63;;;6.80;71.90;;;;;;6080095;23;20333;-91
2022/03/10 00:50:20;;;;;;;24.90;14.57;;;6.80;72.10;;;;;;6080518;23;20006;-91
2022/03/10 00:52:47;;;;;;;23.25;14.95;;;6.80;72.10;;;;;;6131446;23;20088;-91
2022/03/10 00:55:15;;;;;;;26.90;15.63;;;6.70;72.10;;;;;;6101830;23;20009;-91
2022/03/10 00:57:41;;;;;;;26.08;15.18;;;6.70;72.30;;;;;;6105627;23;20080;-91
2022/03/10 01:00:08;;;;;;;25.70;16.10;;;6.70;72.10;;;;;;6106415;23;20009;-90
2022/03/10 01:02:34;;;;;;;24.27;14.85;;;6.70;72.40;;;;;;6105646;23;20424;-90
2022/03/10 01:05:00;;;;;;;26.65;14.75;;;6.60;72.50;;;;;;6105842;23;20028;-91
2022/03/10 01:07:26;;;;;;;27.75;15.43;;;6.60;72.50;;;;;;6131415;23;20427;-91
2022/03/10 01:09:52;;;;;;;24.20;14.70;;;6.60;72.40;;;;;;6082368;23;20002;-91
2022/03/10 01:12:18;;;;;;;22.98;14.88;;;6.60;72.50;;;;;;6083500;23;20002;-91
2022/03/10 01:14:44;;;;;;;23.63;15.43;;;6.50;72.80;;;;;;6083035;23;20077;-91
2022/03/10 01:17:10;;;;;;;28.23;14.98;;;6.50;73.10;;;;;;6132337;23;20002;-91
2022/03/10 01:19:35;;;;;;;23.92;14.57;;;6.50;73.30;;;;;;6106102;23;20433;-90
2022/03/10 01:22:01;;;;;;;23.77;14.75;;;6.50;73.30;;;;;;6105520;23;20311;-91
2022/03/10 01:24:27;;;;;;;23.23;14.52;;;6.40;73.50;;;;;;6081587;23;20097;-91
2022/03/10 01:26:53;;;;;;;26.63;15.40;;;6.40;73.60;;;;;;6082269;23;20066;-91
2022/03/10 01:29:19;;;;;;;24.70;14.70;;;6.40;73.60;;;;;;6082390;23;20013;-91
2022/03/10 01:31:45;;;;;;;22.38;14.50;;;6.40;73.70;;;;;;6096346;23;20021;-91
2022/03/10 01:34:10;;;;;;;25.05;15.75;;;6.30;73.60;;;;;;6107337;23;20388;-86
2022/03/10 01:36:36;;;;;;;23.38;15.20;;;6.30;73.70;;;;;;6134036;23;20012;-86
2022/03/10 01:39:04;;;;;;;25.55;14.85;;;6.30;73.70;;;;;;6136829;23;20005;-86
2022/03/10 01:41:32;;;;;;;23.95;15.15;;;6.20;74.10;;;;;;6187718;23;20004;-86
2022/03/10 01:44:03;;;;;;;23.85;14.60;;;6.20;74.30;;;;;;6187572;23;20435;-86
2022/03/10 01:46:29;;;;;;;23.73;14.60;;;6.20;74.40;;;;;;6160976;23;20016;-86
2022/03/10 01:48:55;;;;;;;24.23;14.73;;;6.20;74.40;;;;;;6160893;23;20443;-84
2022/03/10 01:51:22;;;;;;;22.50;14.50;;;6.10;74.30;;;;;;6160858;23;20009;-84
2022/03/10 01:53:50;;;;;;;25.70;15.32;;;6.10;74.70;;;;;;6136229;23;20009;-84
2022/03/10 01:56:17;;;;;;;26.55;15.75;;;6.10;74.70;;;;;;6161027;23;20055;-84
2022/03/10 01:58:43;;;;;;;25.23;15.25;;;6.00;74.70;;;;;;6160999;23;20425;-85
2022/03/10 02:01:10;;;;;;;23.55;14.70;;;6.00;74.80;;;;;;6161033;23;20001;-85
2022/03/10 02:03:40;;;;;;;24.58;15.70;;;6.00;75.00;;;;;;6112658;23;20023;-85
2022/03/10 02:06:06;;;;;;;23.65;14.73;;;6.00;75.40;;;;;;6160872;23;20013;-85
2022/03/10 02:11:17;;;;;;;23.75;14.45;;;5.90;75.40;;;;;;6187246;23;20016;-86
2022/03/10 02:13:43;;;;;;;27.65;14.15;;;5.80;75.70;;;;;;6135851;23;20056;-85
2022/03/10 02:18:57;;;;;;;25.48;15.13;;;5.80;76.40;;;;;;6187243;23;20100;-86
2022/03/10 02:21:23;;;;;;;23.23;14.05;;;5.80;76.90;;;;;;6160513;23;20028;-85
2022/03/10 02:23:49;;;;;;;22.92;13.57;;;5.70;76.40;;;;;;6160432;23;20005;-85
2022/03/10 02:26:15;;;;;;;23.17;14.13;;;5.70;76.50;;;;;;6160453;23;20055;-85
2022/03/10 02:28:44;;;;;;;25.33;15.27;;;5.70;76.20;;;;;;6136167;23;20012;-85
2022/03/10 02:31:11;;;;;;;22.40;14.23;;;5.60;76.70;;;;;;6160206;23;20017;-86
2022/03/10 02:33:37;;;;;;;23.23;13.77;;;5.70;76.80;;;;;;6136207;23;20012;-87
2022/03/10 02:36:04;;;;;;;23.88;14.60;;;5.60;77.00;;;;;;6160273;23;19997;-85
2022/03/10 02:38:31;;;;;;;20.67;13.75;;;5.60;77.20;;;;;;6160836;23;20083;-85
2022/03/10 02:40:57;;;;;;;23.55;13.50;;;5.50;77.40;;;;;;6160490;23;20421;-85
2022/03/10 02:43:23;;;;;;;23.67;13.95;;;5.50;77.10;;;;;;6160504;23;20005;-86
2022/03/10 02:45:49;;;;;;;21.70;13.82;;;5.50;77.60;;;;;;6186923;23;20005;-86
2022/03/10 02:48:16;;;;;;;24.95;14.15;;;5.50;77.90;;;;;;6186826;23;20016;-86
2022/03/10 02:50:43;;;;;;;22.95;14.13;;;5.40;78.00;;;;;;6160273;23;20385;-86
2022/03/10 02:53:10;;;;;;;24.75;14.50;;;5.40;78.00;;;;;;6186820;23;20009;-86
2022/03/10 02:55:37;;;;;;;22.33;13.98;;;5.40;78.00;;;;;;6160527;23;20005;-85
2022/03/10 02:58:03;;;;;;;22.75;13.82;;;5.40;78.00;;;;;;6111536;23;20012;-85
2022/03/10 03:00:29;;;;;;;22.17;13.82;;;5.40;78.10;;;;;;6186668;23;20001;-86
2022/03/10 03:02:55;;;;;;;24.73;14.88;;;5.30;78.30;;;;;;6136000;23;20009;-86
2022/03/10 03:05:21;;;;;;;23.65;14.27;;;5.30;78.50;;;;;;6160414;23;20000;-86
2022/03/10 03:07:48;;;;;;;25.30;16.30;;;5.30;78.50;;;;;;6135886;23;20488;-86
2022/03/10 03:10:14;;;;;;;24.85;14.65;;;5.30;78.60;;;;;;6160284;23;20016;-86
2022/03/10 03:12:44;;;;;;;22.38;13.90;;;5.30;78.50;;;;;;6160574;23;20009;-85
2022/03/10 03:15:10;;;;;;;27.55;13.25;;;5.20;78.40;;;;;;6160533;23;20076;-86
2022/03/10 03:17:35;;;;;;;24.70;15.30;;;5.20;78.60;;;;;;6135915;23;20005;-86
2022/03/10 03:20:01;;;;;;;22.63;13.63;;;5.20;78.80;;;;;;6135897;23;20032;-86
2022/03/10 03:22:27;;;;;;;25.20;13.90;;;5.20;79.00;;;;;;6111547;23;20009;-85
2022/03/10 03:24:52;;;;;;;23.83;14.63;;;5.10;79.20;;;;;;6137901;23;20100;-85
2022/03/10 03:27:18;;;;;;;22.77;13.90;;;5.10;79.20;;;;;;6135832;23;20044;-85
2022/03/10 03:29:43;;;;;;;25.52;14.55;;;5.10;79.50;;;;;;6160567;23;20328;-84
2022/03/10 03:32:09;;;;;;;25.38;14.73;;;5.10;79.80;;;;;;6110753;23;20013;-85
2022/03/10 03:34:35;;;;;;;21.77;13.60;;;5.10;80.50;;;;;;6134936;23;20013;-86
2022/03/10 03:37:01;;;;;;;22.50;13.73;;;5.00;80.30;;;;;;6110972;23;20005;-86
2022/03/10 03:39:26;;;;;;;24.95;14.60;;;5.00;80.20;;;;;;6159775;23;20005;-86
2022/03/10 03:41:52;;;;;;;24.83;14.10;;;5.00;80.70;;;;;;6110985;23;20005;-84
2022/03/10 03:44:17;;;;;;;27.92;13.98;;;5.00;79.90;;;;;;6135751;23;20096;-84
2022/03/10 03:46:43;;;;;;;26.33;15.02;;;4.90;79.70;;;;;;6135914;23;20091;-84
2022/03/10 03:49:09;;;;;;;24.70;14.75;;;4.90;80.30;;;;;;6135540;23;20029;-85
2022/03/10 03:51:36;;;;;;;23.48;13.80;;;4.90;80.60;;;;;;6186428;23;20015;-85
2022/03/10 03:54:01;;;;;;;23.50;13.77;;;4.90;80.90;;;;;;6136281;23;20005;-84
2022/03/10 03:56:27;;;;;;;25.17;14.85;;;4.90;81.10;;;;;;6136177;23;20006;-88
2022/03/10 03:58:53;;;;;;;22.08;14.20;;;4.80;81.00;;;;;;6160216;23;20029;-86
2022/03/10 04:01:19;;;;;;;23.33;14.50;;;4.80;81.20;;;;;;6159711;23;20088;-86
2022/03/10 04:03:45;;;;;;;22.60;14.15;;;4.70;81.10;;;;;;6160084;23;20032;-86
2022/03/10 04:06:10;;;;;;;22.20;14.13;;;4.70;81.00;;;;;;6159659;23;20044;-87
2022/03/10 04:08:36;;;;;;;24.45;14.55;;;4.70;81.20;;;;;;6186210;23;20012;-86
2022/03/10 04:11:03;;;;;;;23.13;14.05;;;4.70;81.50;;;;;;6159831;23;20008;-86
2022/03/10 04:13:29;;;;;;;23.90;13.52;;;4.70;81.50;;;;;;6159330;23;20001;-86
2022/03/10 04:15:54;;;;;;;24.60;13.88;;;4.60;81.90;;;;;;6159680;23;20043;-85
2022/03/10 04:18:20;;;;;;;21.83;13.52;;;4.60;82.00;;;;;;6159763;23;20032;-86
2022/03/10 04:20:47;;;;;;;24.02;14.93;;;4.60;82.20;;;;;;6135650;23;20088;-86
2022/03/10 04:23:14;;;;;;;25.85;14.93;;;4.60;82.60;;;;;;6135642;23;20395;-87
2022/03/10 04:25:41;;;;;;;23.30;14.00;;;4.60;82.80;;;;;;6159734;23;20009;-86
2022/03/10 04:28:07;;;;;;;26.75;15.07;;;4.50;82.20;;;;;;6135002;23;20306;-85
2022/03/10 04:30:34;;;;;;;25.85;14.45;;;4.50;82.90;;;;;;6110834;23;20040;-85
2022/03/10 04:33:00;;;;;;;20.35;12.85;;;4.50;82.30;;;;;;6156786;23;20073;-86
2022/03/10 04:35:27;;;;;;;24.77;14.35;;;4.50;82.50;;;;;;6156563;23;20005;-86
2022/03/10 04:37:53;;;;;;;24.55;13.88;;;4.50;82.70;;;;;;6130394;23;20005;-87
2022/03/10 04:40:20;;;;;;;23.40;14.05;;;4.40;82.80;;;;;;6130332;23;20006;-86
2022/03/10 04:42:47;;;;;;;23.40;14.15;;;4.40;83.40;;;;;;6105802;23;20500;-86
2022/03/10 04:45:13;;;;;;;24.55;13.32;;;4.40;83.60;;;;;;6130149;23;20002;-90
2022/03/10 04:47:39;;;;;;;24.20;15.13;;;4.40;83.60;;;;;;6081965;23;20005;-89
2022/03/10 04:50:06;;;;;;;22.80;14.38;;;4.40;84.10;;;;;;6106416;23;20016;-90
2022/03/10 04:52:32;;;;;;;25.85;15.18;;;4.30;84.00;;;;;;6131075;23;20005;-90
2022/03/10 04:54:59;;;;;;;26.52;15.15;;;4.30;84.40;;;;;;6130754;23;20021;-90
2022/03/10 04:57:26;;;;;;;25.38;14.52;;;4.30;84.80;;;;;;6106777;23;20029;-90
2022/03/10 04:59:51;;;;;;;24.05;14.88;;;4.30;84.90;;;;;;6082809;23;20010;-89
2022/03/10 05:02:17;;;;;;;25.42;15.48;;;4.20;85.20;;;;;;6082251;23;20052;-89
2022/03/10 05:04:43;;;;;;;23.63;14.70;;;4.20;85.30;;;;;;6130855;23;20013;-90
2022/03/10 05:07:09;;;;;;;28.50;14.73;;;4.20;85.60;;;;;;6082365;23;20092;-90
2022/03/10 05:09:34;;;;;;;27.42;15.50;;;4.20;85.70;;;;;;6106618;23;20429;-89
2022/03/10 05:12:00;;;;;;;24.45;14.80;;;4.10;86.30;;;;;;6140383;23;20005;-91
2022/03/10 05:14:26;;;;;;;24.13;14.90;;;4.10;86.80;;;;;;6115829;23;20090;-91
2022/03/10 05:16:52;;;;;;;24.60;14.02;;;4.10;86.80;;;;;;6115708;23;20013;-90
2022/03/10 05:19:17;;;;;;;23.23;15.10;;;4.10;86.70;;;;;;6091217;23;20010;-90
2022/03/10 05:21:43;;;;;;;26.42;15.20;;;4.10;87.10;;;;;;6092029;23;20002;-91
2022/03/10 05:24:09;;;;;;;23.45;15.02;;;4.10;86.90;;;;;;6143508;23;20002;-91
2022/03/10 05:26:37;;;;;;;24.20;14.70;;;4.10;86.90;;;;;;6118785;23;20009;-91
2022/03/10 05:29:03;;;;;;;27.73;15.23;;;4.10;86.70;;;;;;6140819;23;20080;-91
2022/03/10 05:31:29;;;;;;;26.95;15.90;;;4.10;87.00;;;;;;6117552;23;20024;-91
2022/03/10 05:33:54;;;;;;;23.95;14.20;;;4.10;87.10;;;;;;6166768;23;20417;-91
2022/03/10 05:36:20;;;;;;;23.23;13.95;;;4.00;86.90;;;;;;6093922;23;20006;-91
2022/03/10 05:38:45;;;;;;;24.60;15.05;;;4.00;87.20;;;;;;6142703;23;20009;-91
2022/03/10 05:41:11;;;;;;;27.00;15.00;;;4.00;87.60;;;;;;6118023;23;20002;-90
2022/03/10 05:43:37;;;;;;;23.67;14.70;;;4.00;87.40;;;;;;6141476;23;20010;-91
2022/03/10 05:46:04;;;;;;;26.05;15.45;;;4.00;88.00;;;;;;6094679;23;20337;-91
2022/03/10 05:48:48;;;;;;;25.48;14.18;;;4.00;87.80;;;;;;6117884;23;20005;-91
2022/03/10 05:51:14;;;;;;;22.40;13.52;;;4.00;88.10;;;;;;6141039;23;20508;-90
2022/03/10 05:53:39;;;;;;;36.20;16.15;;;4.00;88.20;;;;;;6167021;23;20029;-90
2022/03/10 05:56:05;;;;;;;24.63;14.35;;;4.00;88.70;;;;;;6091213;23;20005;-90
2022/03/10 05:58:31;;;;;;;23.30;14.80;;;4.00;88.80;;;;;;6114929;23;20013;-90
2022/03/10 06:00:57;;;;;;;28.67;15.80;;;4.00;88.50;;;;;;6112970;23;20037;-90
2022/03/10 06:03:22;;;;;;;23.50;14.57;;;4.00;88.40;;;;;;6112409;23;20009;-90
2022/03/10 06:05:48;;;;;;;25.85;15.43;;;3.90;88.20;;;;;;6134468;23;20401;-89
2022/03/10 06:08:14;;;;;;;25.73;14.20;;;3.90;88.10;;;;;;6165624;23;20001;-91
2022/03/10 06:10:39;;;;;;;25.67;14.38;;;3.90;88.10;;;;;;6086503;23;20068;-91
2022/03/10 06:13:06;;;;;;;22.92;14.45;;;3.90;88.10;;;;;;6086673;23;20044;-91
2022/03/10 06:15:32;;;;;;;29.02;14.80;;;3.90;88.40;;;;;;6145426;23;20001;-91
2022/03/10 06:17:57;;;;;;;28.77;14.40;;;3.90;88.70;;;;;;6108599;23;20020;-91
2022/03/10 06:20:23;;;;;;;24.92;14.40;;;3.90;88.60;;;;;;6086421;23;20032;-91
2022/03/10 06:22:49;;;;;;;24.20;15.30;;;3.80;88.80;;;;;;6110711;23;20014;-91
2022/03/10 06:25:14;;;;;;;26.48;14.38;;;3.80;88.90;;;;;;6084742;23;20088;-91
2022/03/10 06:27:40;;;;;;;24.30;14.27;;;3.80;88.90;;;;;;6087091;23;20009;-91
2022/03/10 06:30:06;;;;;;;25.50;15.50;;;3.80;88.90;;;;;;6111416;23;20016;-91
2022/03/10 06:32:32;;;;;;;27.77;15.15;;;3.80;89.00;;;;;;6107649;23;20024;-91
2022/03/10 06:34:59;;;;;;;24.63;14.07;;;3.80;89.20;;;;;;6143154;23;20005;-91
2022/03/10 06:37:25;;;;;;;26.17;15.32;;;3.80;89.20;;;;;;6120940;23;20025;-91
2022/03/10 06:39:52;;;;;;;24.40;14.48;;;3.80;89.60;;;;;;6148917;23;20001;-89
2022/03/10 06:42:19;;;;;;;23.98;14.43;;;3.80;89.60;;;;;;6137237;23;20009;-89
2022/03/10 06:44:45;;;;;;;22.70;13.57;;;3.80;89.90;;;;;;6161259;23;20009;-89
2022/03/10 06:47:12;;;;;;;26.08;15.07;;;3.80;90.10;;;;;;6136865;23;20328;-89
2022/03/10 06:49:39;;;;;;;24.70;13.95;;;3.80;90.20;;;;;;6137003;23;20017;-89
2022/03/10 06:52:06;;;;;;;23.35;14.43;;;3.80;90.20;;;;;;6136955;23;20009;-89
2022/03/10 06:54:32;;;;;;;24.35;13.93;;;3.80;90.40;;;;;;6161155;23;20012;-89
2022/03/10 06:56:58;;;;;;;24.13;14.45;;;3.80;90.30;;;;;;6161141;23;20027;-89
2022/03/10 06:59:23;;;;;;;27.88;14.77;;;3.80;90.50;;;;;;6136672;23;20389;-89
2022/03/10 07:01:49;;;;;;;24.13;14.43;;;3.80;90.50;;;;;;6112073;23;20008;-89
2022/03/10 07:04:15;;;;;;;25.23;14.50;;;3.90;90.50;;;;;;6136914;23;20454;-85
2022/03/10 07:06:41;;;;;;;26.98;14.60;;;3.80;90.50;;;;;;6137098;23;20072;-85
2022/03/10 07:09:07;;;;;;;25.50;14.32;;;3.90;90.30;;;;;;6136414;23;20012;-85
2022/03/10 07:11:32;;;;;;;21.17;12.88;;;3.90;90.20;;;;;;6135673;23;20036;-86
2022/03/10 07:13:58;;;;;;;24.85;14.43;;;3.90;90.10;;;;;;6111137;23;20439;-85
2022/03/10 07:16:23;;;;;;;25.13;13.02;;;3.90;90.00;;;;;;6111976;23;20005;-85
2022/03/10 07:18:52;;;;;;;23.88;13.45;;;4.00;89.70;;;;;;6135911;23;20009;-85
2022/03/10 07:21:22;;;;;;;22.08;13.18;;;4.00;89.20;;;;;;6112533;23;20005;-86
2022/03/10 07:23:49;;;;;;;22.27;13.32;;;4.00;88.70;;;;;;6160434;23;20064;-86
2022/03/10 07:26:15;;;;;;;23.38;13.35;;;4.00;88.40;;;;;;6135841;23;20036;-86
2022/03/10 07:29:00;;;;;;;23.33;14.23;;;4.10;88.00;;;;;;6158317;23;20432;-85
2022/03/10 07:31:31;;;;;;;24.45;13.88;;;4.10;87.40;;;;;;6155496;23;20399;-85
2022/03/10 07:33:57;;;;;;;24.75;14.10;;;4.20;87.20;;;;;;6105677;23;20103;-85
2022/03/10 07:36:23;;;;;;;26.00;13.52;;;4.20;86.90;;;;;;6130245;23;20033;-85
2022/03/10 07:38:49;;;;;;;22.45;13.70;;;4.30;86.80;;;;;;6130118;23;20369;-85
2022/03/10 07:41:15;;;;;;;23.13;13.75;;;4.30;86.60;;;;;;6130544;23;20084;-86
2022/03/10 07:43:40;;;;;;;26.55;14.27;;;4.40;86.40;;;;;;6130102;23;20009;-86
2022/03/10 07:46:06;;;;;;;22.70;13.55;;;4.40;86.20;;;;;;6105839;23;20460;-86
2022/03/10 07:48:33;;;;;;;26.00;13.43;;;4.50;85.70;;;;;;6105657;23;20006;-86
2022/03/10 07:50:59;;;;;;;24.95;13.32;;;4.60;85.40;;;;;;6106318;23;20016;-86
2022/03/10 07:53:25;;;;;;;22.65;13.02;;;4.60;85.00;;;;;;6158524;23;20006;-93
2022/03/10 07:55:54;;;;;;;21.98;12.63;;;4.70;84.90;;;;;;6173080;23;20002;-93
2022/03/10 07:58:23;;;;;;;27.45;14.52;;;4.80;84.70;;;;;;6172013;23;20001;-91
2022/03/10 08:00:49;;;;;;;24.08;13.55;;;4.80;84.80;;;;;;6083664;23;20012;-87
2022/03/10 08:03:15;;;;;;;22.38;13.52;;;4.80;84.70;;;;;;6106801;23;20006;-87
2022/03/10 08:05:40;;;;;;;19.38;12.43;;;4.90;84.50;;;;;;6106854;23;20014;-87
2022/03/10 08:08:06;;;;;;;25.52;13.70;;;5.00;84.50;;;;;;6106485;23;20044;-87
2022/03/10 08:10:32;;;;;;;22.45;14.20;;;5.10;84.30;;;;;;6082067;23;20025;-86
2022/03/10 08:12:57;;;;;;;23.83;13.98;;;5.20;83.70;;;;;;6082288;23;20009;-86
2022/03/10 08:15:25;;;;;;;27.92;14.95;;;5.20;83.70;;;;;;6082139;23;20035;-87
2022/03/10 08:17:51;;;;;;;25.23;14.32;;;5.30;83.00;;;;;;6131160;23;20006;-86
2022/03/10 08:20:16;;;;;;;25.40;13.80;;;5.30;83.10;;;;;;6130498;23;20006;-87
2022/03/10 08:22:42;;;;;;;23.15;12.43;;;5.40;82.70;;;;;;6081941;23;20328;-87
2022/03/10 08:25:08;;;;;;;21.67;13.57;;;5.50;82.80;;;;;;6130358;23;20029;-86
2022/03/10 08:27:34;;;;;;;24.40;14.00;;;5.60;82.60;;;;;;6082063;23;20069;-86
2022/03/10 08:29:59;;;;;;;24.75;14.45;;;5.60;82.60;;;;;;6105768;23;20009;-85
2022/03/10 08:32:26;;;;;;;21.35;13.27;;;5.70;82.40;;;;;;6096873;23;20043;-83
2022/03/10 08:34:52;;;;;;;22.10;13.18;;;5.80;82.70;;;;;;6135360;23;20063;-83
2022/03/10 08:37:20;;;;;;;21.73;13.88;;;5.80;82.50;;;;;;6135182;23;20009;-83
2022/03/10 08:39:46;;;;;;;24.92;13.68;;;5.90;82.50;;;;;;6160901;23;20005;-83
2022/03/10 08:42:11;;;;;;;29.95;13.95;;;6.00;81.90;;;;;;6111004;23;20048;-83
2022/03/10 08:44:37;;;;;;;22.80;13.88;;;6.00;81.40;;;;;;6135562;23;20051;-83
2022/03/10 08:47:03;;;;;;;20.88;13.10;;;6.20;81.80;;;;;;6110859;23;20005;-83
2022/03/10 08:49:29;;;;;;;25.92;14.18;;;6.20;81.80;;;;;;6135478;23;20079;-83
2022/03/10 08:51:55;;;;;;;24.48;13.05;;;6.30;82.10;;;;;;6134844;23;20428;-83
2022/03/10 08:54:21;;;;;;;24.17;14.25;;;6.40;82.20;;;;;;6160668;23;20008;-84
2022/03/10 08:56:47;;;;;;;25.52;14.38;;;6.50;82.20;;;;;;6161488;23;20005;-84
2022/03/10 08:59:13;;;;;;;24.17;13.43;;;6.60;81.80;;;;;;6163663;23;20092;-83
2022/03/10 09:01:38;;;;;;;22.77;13.65;;;6.60;81.70;;;;;;6142402;23;20380;-84
2022/03/10 09:04:04;;;;;;;28.48;13.55;;;6.80;81.60;;;;;;6145092;23;20096;-84
2022/03/10 09:06:30;;;;;;;24.15;13.55;;;6.90;81.10;;;;;;6144381;23;20005;-83
2022/03/10 09:08:56;;;;;;;25.65;13.85;;;7.00;80.80;;;;;;6140475;23;20036;-83
2022/03/10 09:11:22;;;;;;;24.77;14.43;;;7.10;81.10;;;;;;6163464;23;20008;-84
2022/03/10 09:13:48;;;;;;;23.05;14.05;;;7.20;80.90;;;;;;6140328;23;20024;-83
2022/03/10 09:16:19;;;;;;;25.13;13.57;;;7.30;80.50;;;;;;6114807;23;20009;-83
2022/03/10 09:18:45;;;;;;;;;;;7.40;81.10;;;;;;6163298;23;20093;-83
2022/03/10 09:21:15;;;;;;;25.05;13.32;;;7.50;81.10;;;;;;6189647;23;20312;-84
2022/03/10 09:23:40;;;;;;;25.40;14.00;;;7.70;80.80;;;;;;6164209;23;20005;-84
2022/03/10 09:26:06;;;;;;;22.77;14.23;;;7.80;80.40;;;;;;6136939;23;20412;-85
2022/03/10 09:28:32;;;;;;;21.40;13.45;;;7.90;80.00;;;;;;6137371;23;20005;-85
2022/03/10 09:30:58;;;;;;;22.92;13.35;;;8.00;79.80;;;;;;6161727;23;20039;-85
2022/03/10 09:33:23;;;;;;;23.38;13.57;;;8.20;79.10;;;;;;6162333;23;20013;-85
2022/03/10 09:35:49;;;;;;;23.85;13.65;;;8.30;79.30;;;;;;6108218;23;20028;-85
2022/03/10 09:38:16;;;;;;;22.75;14.25;;;8.50;78.80;;;;;;6157797;23;20009;-85
2022/03/10 09:40:42;;;;;;;23.50;14.00;;;8.60;77.20;;;;;;6131885;23;20328;-85
2022/03/10 09:43:09;;;;;;;24.52;14.20;;;8.70;77.00;;;;;;6083210;23;20020;-84
2022/03/10 09:45:36;;;;;;;25.15;15.00;;;8.90;77.50;;;;;;6108284;23;20319;-84
2022/03/10 09:48:03;;;;;;;23.90;14.27;;;9.00;76.30;;;;;;6156353;23;20417;-84
2022/03/10 09:50:28;;;;;;;27.67;14.82;;;9.10;76.20;;;;;;6156518;23;20010;-84
2022/03/10 09:52:54;;;;;;;24.33;13.43;;;9.20;76.20;;;;;;6131054;23;20016;-84
2022/03/10 09:55:20;;;;;;;24.17;15.05;;;9.40;75.80;;;;;;6180525;23;20073;-84
2022/03/10 09:57:48;;;;;;;24.70;14.60;;;9.50;75.80;;;;;;6131685;23;20089;-85
2022/03/10 10:00:16;;;;;;;23.23;14.65;;;9.60;76.10;;;;;;6155977;23;20409;-84
2022/03/10 10:02:44;;;;;;;23.70;14.55;;;9.70;75.00;;;;;;6156275;23;20005;-86
2022/03/10 10:05:27;;;;;;;25.77;14.98;;;9.90;75.10;;;;;;6156796;23;20314;-85
2022/03/10 10:08:19;;;;;;;26.85;14.77;;;10.00;75.40;;;;;;6156588;23;20001;-85
2022/03/10 10:10:48;;;;;;;23.30;15.18;;;10.20;74.10;;;;;;6174168;23;20029;-85
2022/03/10 10:13:32;;;;;;;23.23;14.57;;;10.30;74.30;;;;;;6155307;23;20008;-85
2022/03/10 10:19:19;;;;;;;23.52;14.43;;;10.60;74.10;;;;;;6157665;23;20040;-85
2022/03/10 10:22:12;;;;;;;23.60;14.43;;;10.70;73.10;;;;;;6132822;23;20328;-85
2022/03/10 10:24:38;;;;;;;29.08;16.00;;;10.90;73.10;;;;;;6182526;23;20092;-85
2022/03/10 10:27:21;;;;;;;26.77;16.25;;;11.00;72.50;;;;;;6157957;23;20336;-85
2022/03/10 10:29:49;;;;;;;25.50;14.50;;;11.20;71.40;;;;;;6183740;23;20012;-85
2022/03/10 10:32:34;;;;;;;24.50;15.07;;;11.30;71.30;;;;;;6159276;23;20009;-85
2022/03/10 10:35:23;;;;;;;25.27;15.40;;;11.40;71.20;;;;;;6183135;23;20016;-85
2022/03/10 10:37:54;;;;;;;24.77;15.15;;;11.60;72.00;;;;;;6184616;23;20012;-85
2022/03/10 10:40:27;;;;;;;29.35;17.20;;;11.80;72.10;;;;;;6161219;23;20010;-85
2022/03/10 10:42:53;;;;;;;29.35;15.57;;;11.90;70.60;;;;;;6159387;23;20060;-89
2022/03/10 10:45:35;;;;;;;24.30;15.90;;;12.00;69.80;;;;;;6156830;23;20096;-88
2022/03/10 10:48:03;;;;;;;23.00;15.35;;;12.20;69.40;;;;;;6157859;23;20005;-89
2022/03/10 10:50:35;;;;;;;25.02;14.73;;;12.30;69.70;;;;;;6158677;23;20033;-88
2022/03/10 10:53:01;;;;;;;24.77;15.70;;;12.50;69.40;;;;;;6157577;23;20353;-88
2022/03/10 10:55:35;;;;;;;25.33;14.18;;;12.60;68.00;;;;;;6132044;23;20098;-88
2022/03/10 11:01:36;;;;;;;22.77;15.10;;;12.90;67.50;;;;;;6156989;23;20036;-87
2022/03/10 11:04:05;;;;;;;24.50;15.07;;;13.00;64.50;;;;;;6155995;23;20013;-88
2022/03/10 11:09:53;;;;;;;27.63;16.77;;;13.40;65.20;;;;;;6154142;23;20017;-87
2022/03/10 11:12:19;;;;;;;24.35;15.25;;;13.60;64.70;;;;;;6129907;23;20014;-88
2022/03/10 11:14:46;;;;;;;24.38;15.20;;;13.70;64.80;;;;;;6156425;23;20001;-87
2022/03/10 11:17:13;;;;;;;24.30;15.18;;;13.80;63.60;;;;;;6180966;23;20084;-88
2022/03/10 11:19:43;;;;;;;25.95;15.00;;;14.00;63.60;;;;;;6106908;23;20425;-87
2022/03/10 11:22:36;;;;;;;25.92;15.68;;;14.10;62.20;;;;;;6155930;23;20029;-87
2022/03/10 11:25:20;;;;;;;22.52;14.93;;;14.20;61.70;;;;;;6180438;23;20009;-87
2022/03/10 11:27:54;;;;;;;25.13;15.18;;;14.40;62.40;;;;;;6180772;23;20041;-87
2022/03/10 11:30:27;;;;;;;23.73;16.33;;;14.50;61.30;;;;;;6157575;23;20005;-87
2022/03/10 11:33:09;;;;;;;25.95;16.48;;;14.60;61.50;;;;;;6155494;23;20009;-88
2022/03/10 11:35:43;;;;;;;23.05;15.55;;;14.70;60.30;;;;;;6155722;23;20093;-88
2022/03/10 11:38:10;;;;;;;27.58;14.90;;;14.80;60.30;;;;;;6154006;23;20117;-87
2022/03/10 11:41:00;;;;;;;22.02;15.45;;;14.90;59.60;;;;;;6155694;23;20008;-88
2022/03/10 11:43:25;;;;;;;22.25;15.05;;;15.00;58.10;;;;;;6157499;23;20005;-87
2022/03/10 11:45:52;;;;;;;26.38;15.85;;;15.20;59.30;;;;;;6182158;23;20028;-87
2022/03/10 11:48:23;;;;;;;24.20;15.82;;;15.30;59.00;;;;;;6157498;23;20005;-88
2022/03/10 11:50:49;;;;;;;23.73;15.45;;;15.40;58.00;;;;;;6182947;23;20077;-88
2022/03/10 11:53:15;;;;;;;24.40;15.27;;;15.50;58.20;;;;;;6157922;23;20009;-88
2022/03/10 11:55:52;;;;;;;26.27;15.70;;;15.50;55.90;;;;;;6132808;23;20087;-87
2022/03/10 11:58:20;;;;;;;19.80;14.27;;;15.70;56.00;;;;;;6158224;23;20005;-89
2022/03/10 12:00:51;;;;;;;24.42;15.23;;;15.80;57.50;;;;;;6153965;23;20429;-88
2022/03/10 12:03:30;;;;;;;21.70;15.27;;;15.80;56.90;;;;;;6181310;23;20041;-88
2022/03/10 12:06:15;;;;;;;23.08;15.13;;;16.00;57.00;;;;;;6155983;23;20029;-86
2022/03/10 12:08:40;;;;;;;24.40;15.57;;;16.10;55.30;;;;;;6154919;23;20083;-86
2022/03/10 12:11:13;;;;;;;21.80;14.82;;;16.20;55.30;;;;;;6155014;23;20010;-88
2022/03/10 12:13:44;;;;;;;23.17;15.90;;;16.30;55.60;;;;;;6160565;23;20052;-86
2022/03/10 12:16:36;;;;;;;26.15;15.25;;;16.40;54.80;;;;;;6158542;23;20008;-86
2022/03/10 12:19:01;;;;;;;18.90;14.20;;;16.50;55.20;;;;;;6153210;23;20006;-86
2022/03/10 12:21:29;;;;;;;22.90;15.27;;;16.60;54.60;;;;;;6147340;23;19985;-86
2022/03/10 12:23:56;;;;;;;21.75;15.05;;;16.70;54.80;;;;;;6175915;23;20322;-86
2022/03/10 12:26:34;;;;;;;23.42;15.75;;;16.80;54.00;;;;;;6163137;23;20001;-87
2022/03/10 12:29:00;;;;;;;24.20;15.32;;;16.90;53.90;;;;;;6158749;23;19997;-87
2022/03/10 12:31:29;;;;;;;24.45;15.38;;;17.00;53.60;;;;;;6181999;23;20020;-89
2022/03/10 12:34:14;;;;;;;24.17;15.60;;;17.00;53.50;;;;;;6109661;23;20016;-89
2022/03/10 12:36:42;;;;;;;22.63;14.80;;;17.10;51.40;;;;;;6157418;23;20002;-89
2022/03/10 12:39:13;;;;;;;24.35;14.57;;;17.10;51.70;;;;;;6181545;23;20057;-89
2022/03/10 12:41:53;;;;;;;22.77;16.48;;;17.20;52.10;;;;;;6157410;23;20309;-89
2022/03/10 12:44:23;;;;;;;22.75;16.13;;;17.30;51.70;;;;;;6158732;23;20085;-89
2022/03/10 12:46:51;;;;;;;22.45;15.23;;;17.50;52.30;;;;;;6157227;23;20032;-89
2022/03/10 12:49:36;;;;;;;23.05;15.10;;;17.50;49.90;;;;;;6181571;23;20017;-89
2022/03/10 12:52:09;;;;;;;23.00;14.18;;;17.60;51.70;;;;;;6182678;23;20006;-90
2022/03/10 12:54:39;;;;;;;23.17;13.77;;;17.70;48.90;;;;;;6157142;23;20099;-88